Latest Coastal Weather Observations for Tewantin

IDQ60701

Issued at 4:12 pm EST Wednesday 22 February 2017 (issued every 10 minutes, with the page automatically refreshed every 10 minutes)

About coastal observations | Map of coastal stations | Coastal observations for QLD | Marine services | Other Formats
Station Details ID: 040908 Name: TEWANTIN RSL PARK Lat: -26.39 Lon: 153.04 Height: 6.4 m
Data from the previous 72 hours. | See also: Recent months at Tewantin
Date/Time
EST
Temp
°C
Wind Pressure Rain since
9am
mm
Weather Cloud Vis
km
Sea
Height
m
Swell
Dir  Spd
kts
Gust
kts
hPa Trend Height
m
Period
s
Dir
22/04:00pm 27.0 SSE 8 14 1016.6 - 0.0 - - - - - - -
22/03:30pm 26.8 SE 10 19 1016.7 - 0.0 - - - - - - -
22/03:00pm 26.9 SSE 9 16 1016.8 - 0.0 - - - - - - -
22/02:30pm 27.4 SE 8 13 1016.9 - 0.0 - - - - - - -
22/02:00pm 27.0 SE 11 19 1017.3 - 0.0 - - - - - - -
22/01:30pm 27.6 SE 12 18 1017.4 - 0.0 - - - - - - -
22/01:00pm 27.6 SE 10 19 1017.6 - 0.0 - - - - - - -
22/12:30pm 27.2 SE 12 18 1017.8 - 0.0 - - - - - - -
22/12:00pm 27.6 SE 12 21 1018.3 - 0.0 - - - - - - -
22/11:30am 28.0 SE 14 21 1018.4 - 0.0 - - - - - - -
22/11:00am 27.8 SE 11 20 1018.5 - 0.0 - - - - - - -
22/10:30am 27.1 ESE 14 22 1018.6 - 0.0 - - - - - - -
22/10:00am 27.4 SE 10 17 1018.9 - 0.0 - - - - - - -
22/09:30am 28.8 SE 11 16 1018.8 - 0.0 - - - - - - -
22/09:00am 27.3 SE 10 17 1018.8 - 0.0 - - - - - - -
22/08:30am 27.6 SE 9 15 1018.6 - 0.0 - - - - - - -
22/08:00am 27.3 ESE 10 17 1018.5 - 0.0 - - - - - - -
22/07:30am 26.5 SE 9 16 1018.4 - 0.0 - - - - - - -
22/07:00am 26.3 SE 7 14 1018.3 - 0.0 - - - - - - -
22/06:30am 26.0 SE 9 15 1017.3 - 0.0 - - - - - - -
22/06:00am 25.4 SSE 6 11 1017.6 - 0.0 - - - - - - -
22/05:30am 25.4 SE 7 12 1017.3 - 0.0 - - - - - - -
22/05:00am 25.2 SSE 6 9 1017.1 - 0.0 - - - - - - -
22/04:30am 25.2 SSE 6 10 1016.8 - 0.0 - - - - - - -
22/04:00am 25.1 SSE 6 11 1016.7 - 0.0 - - - - - - -
22/03:30am 25.2 SSE 6 10 1016.4 - 0.0 - - - - - - -
22/03:00am 25.2 SE 6 9 1016.6 - 0.0 - - - - - - -
22/02:30am 25.3 SE 7 11 1016.6 - 0.0 - - - - - - -
22/02:00am 25.3 SSE 7 12 1017.0 - 0.0 - - - - - - -
22/01:30am 25.3 SE 7 10 1017.0 - 0.0 - - - - - - -
22/01:00am 25.3 SE 6 11 1017.0 - 0.0 - - - - - - -
22/12:30am 25.5 SE 7 13 1017.2 - 0.0 - - - - - - -
22/12:00am 25.8 ESE 9 15 1017.3 - 0.0 - - - - - - -
 
Date/Time
EST
Temp
°C
Wind Pressure Rain since
9am
mm
Weather Cloud Vis
km
Sea
Height
m
Swell
Dir  Spd
kts
Gust
kts
hPa Trend Height
m
Period
s
Dir
21/11:30pm 25.9 ESE 11 16 1017.4 - 0.0 - - - - - - -
21/11:00pm 26.0 ESE 10 17 1017.4 - 0.0 - - - - - - -
21/10:30pm 26.1 ESE 11 20 1017.6 - 0.0 - - - - - - -
21/10:00pm 26.2 ESE 10 16 1017.7 - 0.0 - - - - - - -
21/09:30pm 26.2 SE 9 18 1018.0 - 0.0 - - - - - - -
21/09:00pm 26.1 ESE 8 13 1017.7 - 0.0 - - - - - - -
21/08:30pm 26.2 SE 8 12 1017.7 - 0.0 - - - - - - -
21/08:00pm 26.4 ESE 8 12 1017.4 - 0.0 - - - - - - -
21/07:30pm 26.5 ESE 11 17 1017.1 - 0.0 - - - - - - -
21/07:00pm 26.6 ESE 9 14 1016.9 - 0.0 - - - - - - -
21/06:30pm 26.8 ESE 9 15 1016.8 - 0.0 - - - - - - -
21/06:00pm 26.9 ESE 11 18 1016.3 - 0.0 - - - - - - -
21/05:30pm 27.1 SE 10 14 1016.1 - 0.0 - - - - - - -
21/05:00pm 27.2 ESE 11 17 1015.7 - 0.0 - - - - - - -
21/04:30pm 27.7 SSE 9 15 1015.3 - 0.0 - - - - - - -
21/04:00pm 27.9 SSE 10 17 1015.2 - 0.0 - - - - - - -
21/03:30pm 28.0 SE 13 20 1015.1 - 0.0 - - - - - - -
21/03:00pm 28.4 SE 10 18 1015.2 - 0.0 - - - - - - -
21/02:30pm 29.1 SE 11 18 1015.1 - 0.0 - - - - - - -
21/02:00pm 28.9 SE 11 19 1015.4 - 0.0 - - - - - - -
21/01:30pm 29.1 SE 10 15 1015.4 - 0.0 - - - - - - -
21/01:00pm 29.0 SE 12 18 1015.7 - 0.0 - - - - - - -
21/12:30pm 28.9 ESE 12 17 1015.9 - 0.0 - - - - - - -
21/12:00pm 29.0 ESE 10 16 1016.2 - 0.0 - - - - - - -
21/11:30am 29.2 SE 9 15 1016.2 - 0.0 - - - - - - -
21/11:00am 29.5 SE 9 15 1016.4 - 0.0 - - - - - - -
21/10:30am 29.3 SE 9 15 1016.5 - 0.0 - - - - - - -
21/10:00am 29.1 SE 9 12 1016.7 - 0.0 - - - - - - -
21/09:30am 28.5 SE 8 14 1016.9 - 0.0 - - - - - - -
21/09:00am 29.3 SE 7 15 1016.9 - 0.2 - - - - - - -
21/08:30am 28.8 SSE 6 12 1016.5 - 0.2 - - - - - - -
21/08:00am 27.8 S 7 11 1016.3 - 0.2 - - - - - - -
21/07:30am 26.5 S 6 9 1016.0 - 0.2 - - - - - - -
21/07:00am 25.2 S 5 7 1015.9 - 0.2 - - - - - - -
21/06:30am 23.8 SSW 4 6 1015.4 - 0.2 - - - - - - -
21/06:00am 23.7 SSW 4 6 1014.9 - 0.2 - - - - - - -
21/05:30am 23.4 SSW 3 5 1014.6 - 0.2 - - - - - - -
21/05:00am 23.5 SSW 4 5 1014.0 - 0.2 - - - - - - -
21/04:30am 23.6 SSW 5 6 1013.7 - 0.2 - - - - - - -
21/04:00am 23.8 SSW 5 6 1013.3 - 0.2 - - - - - - -
21/03:30am 23.8 SSW 4 6 1013.1 - 0.2 - - - - - - -
21/03:00am 23.9 SW 4 6 1012.9 - 0.2 - - - - - - -
21/02:30am 24.0 SW 2 4 1012.9 - 0.2 - - - - - - -
21/02:00am 24.3 SSW 4 6 1013.2 - 0.2 - - - - - - -
21/01:30am 24.2 SSW 4 5 1013.4 - 0.2 - - - - - - -
21/01:00am 24.1 S 4 7 1013.8 - 0.2 - - - - - - -
21/12:30am 24.5 SSW 5 7 1013.9 - 0.2 - - - - - - -
21/12:00am 24.5 SSW 5 6 1014.1 - 0.2 - - - - - - -
 
Date/Time
EST
Temp
°C
Wind Pressure Rain since
9am
mm
Weather Cloud Vis
km
Sea
Height
m
Swell
Dir  Spd
kts
Gust
kts
hPa Trend Height
m
Period
s
Dir
20/11:30pm 24.6 SW 3 4 1014.1 - 0.2 - - - - - - -
20/11:00pm 24.9 SSW 2 4 1014.1 - 0.2 - - - - - - -
20/10:30pm 24.9 SW 3 4 1014.2 - 0.2 - - - - - - -
20/10:00pm 25.5 SSW 3 5 1014.2 - 0.2 - - - - - - -
20/09:30pm 25.9 SSE 3 5 1014.0 - 0.2 - - - - - - -
20/09:00pm 26.0 ESE 5 7 1013.7 - 0.2 - - - - - - -
20/08:30pm 26.0 ESE 4 5 1013.3 - 0.2 - - - - - - -
20/08:00pm 26.2 ESE 5 9 1012.8 - 0.2 - - - - - - -
20/07:30pm 26.2 ESE 5 8 1012.3 - 0.2 - - - - - - -
20/07:00pm 26.4 ESE 6 8 1011.7 - 0.2 - - - - - - -
20/06:30pm 26.6 ESE 6 9 1011.4 - 0.2 - - - - - - -
20/06:00pm 26.9 ESE 7 11 1010.8 - 0.2 - - - - - - -
20/05:30pm 27.1 ESE 8 11 1010.3 - 0.2 - - - - - - -
20/05:00pm 27.5 E 8 11 1009.8 - 0.2 - - - - - - -
20/04:30pm 27.8 ESE 9 13 1009.4 - 0.2 - - - - - - -
20/04:00pm 28.4 ESE 9 12 1009.3 - 0.2 - - - - - - -
20/03:30pm 28.8 ESE 9 13 1009.2 - 0.2 - - - - - - -
20/03:00pm 29.4 ESE 9 13 1009.2 - 0.2 - - - - - - -
20/02:30pm 29.3 ESE 9 13 1009.3 - 0.2 - - - - - - -
20/02:00pm 29.4 ESE 8 14 1009.3 - 0.2 - - - - - - -
20/01:30pm 29.2 ESE 10 14 1009.5 - 0.2 - - - - - - -
20/01:00pm 29.7 ESE 9 14 1009.7 - 0.2 - - - - - - -
20/12:30pm 29.6 ESE 9 12 1010.0 - 0.2 - - - - - - -
20/12:00pm 29.5 ESE 8 13 1010.3 - 0.2 - - - - - - -
20/11:30am 29.8 ESE 5 8 1010.7 - 0.2 - - - - - - -
20/11:00am 29.0 SSE 5 10 1011.0 - 0.2 - - - - - - -
20/10:30am 30.1 S 5 10 1011.3 - 0.2 - - - - - - -
20/10:00am 28.8 SSW 5 10 1011.4 - 0.2 - - - - - - -
20/09:30am 29.0 S 7 12 1011.4 - 0.2 - - - - - - -
20/09:00am 28.2 SSW 6 10 1011.5 - 3.2 - - - - - - -
20/08:30am 26.3 S 4 8 1011.5 - 3.2 - - - - - - -
20/08:00am 26.0 SW 4 6 1011.4 - 3.2 - - - - - - -
20/07:30am 26.2 W 3 6 1011.0 - 3.2 - - - - - - -
20/07:00am 23.7 W 1 4 1010.7 - 3.2 - - - - - - -
20/06:30am 23.2 CALM 0 0 1010.3 - 3.2 - - - - - - -
20/06:00am 22.9 W 4 6 1009.6 - 3.2 - - - - - - -
20/05:30am 23.2 NW 4 5 1008.5 - 3.2 - - - - - - -
20/05:00am 23.1 NNE 4 5 1008.1 - 3.2 - - - - - - -
20/04:30am 23.3 NNW 3 4 1007.8 - 3.2 - - - - - - -
20/04:00am 23.2 NNW 3 4 1007.7 - 3.2 - - - - - - -
20/03:30am 23.5 NNW 1 3 1007.4 - 3.2 - - - - - - -
20/03:00am 23.5 CALM 0 0 1007.8 - 3.2 - - - - - - -
20/02:30am 23.4 CALM 0 0 1008.1 - 3.2 - - - - - - -
20/02:00am 23.6 CALM 0 0 1008.8 - 3.2 - - - - - - -
20/01:30am 23.7 SSW 1 4 1008.7 - 3.2 - - - - - - -
20/01:00am 23.6 SW 2 4 1008.8 - 3.2 - - - - - - -
20/12:30am 23.5 WSW 2 5 1009.1 - 3.2 - - - - - - -
20/12:00am 23.8 CALM 0 0 1009.1 - 3.2 Recent precip. - - - - - -
 
Date/Time
EST
Temp
°C
Wind Pressure Rain since
9am
mm
Weather Cloud Vis
km
Sea
Height
m
Swell
Dir  Spd
kts
Gust
kts
hPa Trend Height
m
Period
s
Dir
19/11:30pm 23.5 CALM 0 0 1009.0 - 3.0 - - - - - - -
19/11:00pm 23.5 NW 1 3 1009.3 - 3.0 - - - - - - -
19/10:30pm 23.6 CALM 0 2 1008.9 - 3.0 - - - - - - -
19/10:00pm 23.7 CALM 0 0 1009.2 - 2.0 - - - - - - -
19/09:30pm 23.7 WSW 2 5 1009.3 - 2.0 - - - - - - -
19/09:00pm 23.6 SSW 3 4 1009.2 - 2.0 Recent precip. - - - - - -
19/08:30pm 23.7 SW 2 4 1009.3 - 2.0 - - - - - - -
19/08:00pm 23.7 S 5 7 1008.1 - 1.6 - - - - - - -
19/07:30pm 23.6 SSE 3 6 1007.9 - 1.6 - - - - - - -
19/07:00pm 24.0 SSW 5 9 1008.1 - 1.0 - - - - - - -
19/06:30pm 24.9 SSW 5 9 1007.5 - 0.6 - - - - - - -
19/06:00pm 25.4 SSW 7 13 1006.7 - 0.6 Recent precip. - - - - - -
19/05:30pm 25.9 SW 3 5 1006.2 - 0.6 - - - - - - -
19/05:00pm 27.4 NW 7 11 1005.8 - 0.0 - - - - - - -
19/04:30pm 27.6 NNE 9 15 1005.2 - 0.0 - - - - - - -

Other Formats:

Comma delimited format used in spreadsheet applications
http://www.bom.gov.au/fwo/IDQ60701/IDQ60701.94570.axf

JavaScript Object Notation format (JSON) in row-major order
http://www.bom.gov.au/fwo/IDQ60701/IDQ60701.94570.json